• Join FlightAware (Why Join?)
  • Login
  • US Flag 
04:04PM EDT


 

Airport Tracker/Info


-or-


 

Live Flight TrackerFlight Track Log ✈ CPT8773 ✈ 25-Apr-2014 ✈ KCPR - KCOD

Flight Track Log - Related Links

Times and Time Zones

All times are in EDT time to prevent confusion due to time zone crossing. See the CPT8773 flight status page for this flight to view local times or setup timezone preferences in your user account.

Time Position Orientation Groundspeed Altitude Reporting Facility
EDT Latitude Longitude Course Direction KTS MPH feet Rate Location/Type
09:12AM 42.9464 -106.5047 312° West 123 142 7,700  Level Denver Center
09:13AM 42.9758 -106.5203 339° North 123 142 8,600 840 Climbing Denver Center
09:14AM 43.0161 -106.5408 340° North 123 142 9,600 780 Climbing Denver Center
09:15AM 43.0469 -106.5553 341° North 123 142 10,300 720 Climbing Denver Center
09:16AM 43.0663 -106.7058 312° West  Level Estimated
09:16AM 43.0781 -106.5714 339° North 123 142 11,100  Level Denver Center
09:17AM 43.0926 -106.7462 312° West  Level Estimated
09:17AM 43.1128 -106.5894 339° North 122 140 12,000  Level Denver Center
09:18AM 43.1539 -106.6086 341° North 134 154 12,000  Level Denver Center
09:19AM 43.1850 -106.6281 336° Northwest 149 171 12,000  Level Salt Lake Center
09:20AM 43.2228 -106.6481 339° North 151 174 12,000  Level Salt Lake Center
09:21AM 43.2675 -106.6689 341° North 151 174 12,000  Level Salt Lake Center
09:22AM 43.3064 -106.6878 341° North 151 174 12,000  Level Salt Lake Center
09:23AM 43.3294 -106.7303 307° West 149 171 12,000  Level Salt Lake Center
09:24AM 43.3522 -106.7819 301° West 145 167 12,000  Level Salt Lake Center
09:25AM 43.3775 -106.8236 310° West 145 167 12,000  Level Salt Lake Center
09:26AM 43.3994 -106.8689 304° West 147 169 12,000  Level Salt Lake Center
09:27AM 43.4261 -106.9183 307° West 147 169 12,000  Level Salt Lake Center
09:28AM 43.4478 -106.9594 306° West 146 168 12,000  Level Salt Lake Center
09:29AM 43.4706 -107.0072 303° West 146 168 12,000  Level Salt Lake Center
09:30AM 43.4947 -107.0508 307° West 146 168 12,000  Level Salt Lake Center
09:31AM 43.5186 -107.0944 307° West 146 168 12,000  Level Salt Lake Center
09:32AM 43.5397 -107.1372 304° West 139 160 12,100  Climbing Salt Lake Center
09:33AM 43.5658 -107.1883 305° West 138 159 12,000  Descending Salt Lake Center
09:34AM 43.5886 -107.2306 307° West 138 159 12,100  Climbing Salt Lake Center
09:35AM 43.6117 -107.2731 307° West 137 158 12,000 -60 Descending Salt Lake Center
09:36AM 43.6356 -107.3161 307° West 138 159 12,000  Level Salt Lake Center
09:37AM 43.6561 -107.3603 303° West 138 159 12,000  Level Salt Lake Center
09:38AM 43.6806 -107.4039 308° West 138 159 12,000  Level Salt Lake Center
09:39AM 43.7036 -107.4492 305° West 140 161 12,000  Level Salt Lake Center
09:40AM 43.7267 -107.4947 305° West 140 161 12,000  Level Salt Lake Center
09:41AM 43.7519 -107.5431 306° West 146 168 12,000  Level Salt Lake Center
09:42AM 43.7758 -107.5911 305° West 149 171 12,000  Level Salt Lake Center
09:43AM 43.7989 -107.6381 304° West 149 171 12,000  Level Salt Lake Center
09:44AM 43.8303 -107.6936 308° West 149 171 12,000  Level Salt Lake Center
09:45AM 43.8550 -107.7422 305° West 149 171 12,100  Climbing Salt Lake Center
09:46AM 43.8794 -107.7911 305° West 150 173 12,000 -60 Descending Salt Lake Center
09:47AM 43.9044 -107.8394 306° West 150 173 12,000  Level Salt Lake Center
09:48AM 43.9303 -107.8892 306° West 152 175 12,000  Level Salt Lake Center
09:49AM 43.9553 -107.9386 305° West 153 176 12,000  Level Salt Lake Center
09:50AM 43.9817 -107.9858 308° West 153 176 12,000  Level Salt Lake Center
09:51AM 44.0122 -108.0328 312° West 156 180 12,000 -300 Level Salt Lake Center
09:52AM 44.0411 -108.0833 308° West 161 185 11,400 -660 Descending Salt Lake Center
09:53AM 44.0669 -108.1331 306° West 161 185 10,700 -780 Descending Salt Lake Center
09:54AM 44.0978 -108.1950 305° West 161 185 9,900 -720 Descending Salt Lake Center
09:55AM 44.1244 -108.2461 306° West 161 185 9,300 -420 Descending Salt Lake Center
09:57AM 44.1497 -108.2958 305° West 161 185 9,100 -180 Descending Salt Lake Center
09:58AM 44.1722 -108.3442 303° West 157 181 9,000 -60 Descending Salt Lake Center
09:59AM 44.1964 -108.3903 306° West 153 176 9,000  Level Salt Lake Center
10:00AM 44.2194 -108.4358 305° West 150 173 9,000  Level Salt Lake Center